Time;durP1;ratioP1;P1;durP2;ratioP2;P2;SDS_P1;SDS_P2;PMS_P1;PMS_P2;Temp;Humidity;BMP_temperature;BMP_pressure;BME280_temperature;BME280_humidity;BME280_pressure;Samples;Min_cycle;Max_cycle;Signal;HPM_P1;HPM_P2
2022/05/18 00:02:23;;;;;;;8.65;5.60;;;16.20;99.90;;;;;;4936051;29;20039;-79
2022/05/18 00:04:49;;;;;;;9.48;5.72;;;16.20;99.90;;;;;;4944311;28;20044;-80
2022/05/18 00:07:15;;;;;;;8.40;5.75;;;16.20;99.90;;;;;;4926107;29;20039;-79
2022/05/18 00:09:45;;;;;;;8.45;6.40;;;16.20;99.90;;;;;;4925845;28;20403;-79
2022/05/18 00:12:11;;;;;;;7.32;5.78;;;16.10;99.90;;;;;;4925745;28;20039;-79
2022/05/18 00:14:37;;;;;;;8.18;6.30;;;16.00;99.90;;;;;;4925334;28;20130;-78
2022/05/18 00:17:07;;;;;;;8.18;6.15;;;15.90;99.90;;;;;;4941067;29;20075;-79
2022/05/18 00:19:33;;;;;;;7.80;5.35;;;15.80;99.90;;;;;;4956617;28;20070;-79
2022/05/18 00:21:59;;;;;;;8.68;6.35;;;15.80;99.90;;;;;;4924322;29;20035;-80
2022/05/18 00:24:25;;;;;;;8.20;6.47;;;15.70;99.90;;;;;;4924984;28;20418;-78
2022/05/18 00:26:54;;;;;;;7.65;6.65;;;15.60;99.90;;;;;;4940169;29;20054;-78
2022/05/18 00:29:22;;;;;;;8.75;6.10;;;15.50;99.90;;;;;;4923149;29;20498;-79
2022/05/18 00:31:49;;;;;;;11.27;6.60;;;15.60;99.90;;;;;;4938902;29;20047;-79
2022/05/18 00:34:16;;;;;;;7.28;6.13;;;15.60;99.90;;;;;;4938550;29;20047;-79
2022/05/18 00:36:42;;;;;;;9.98;6.50;;;15.60;99.90;;;;;;4954094;28;20066;-79
2022/05/18 00:39:11;;;;;;;7.35;6.38;;;15.40;99.90;;;;;;4922267;28;20051;-79
2022/05/18 00:41:38;;;;;;;7.93;5.93;;;15.40;99.90;;;;;;4955305;28;20118;-80
2022/05/18 00:44:06;;;;;;;8.32;6.20;;;15.40;99.90;;;;;;4942390;29;20031;-77
2022/05/18 00:46:32;;;;;;;6.53;5.70;;;15.40;99.90;;;;;;4944239;29;20514;-79
2022/05/18 00:49:01;;;;;;;8.30;6.38;;;15.30;99.90;;;;;;4925805;29;20046;-79
2022/05/18 00:51:39;;;;;;;8.88;5.95;;;15.30;99.90;;;;;;4926123;28;20151;-79
2022/05/18 00:54:11;;;;;;;7.38;5.90;;;15.30;99.90;;;;;;4925743;29;20422;-79
2022/05/18 00:56:49;;;;;;;8.32;6.20;;;15.20;99.90;;;;;;4957162;28;20050;-79
2022/05/18 00:59:31;;;;;;;10.00;6.80;;;15.20;99.90;;;;;;4941247;29;20443;-79
2022/05/18 01:01:59;;;;;;;7.55;6.40;;;15.10;99.90;;;;;;4924725;28;20043;-79
2022/05/18 01:04:26;;;;;;;8.88;6.35;;;15.10;99.90;;;;;;4925460;29;20043;-79
2022/05/18 01:07:02;;;;;;;8.90;6.70;;;15.00;99.90;;;;;;4941226;29;20395;-79
2022/05/18 01:09:41;;;;;;;9.57;6.43;;;15.00;99.90;;;;;;4924752;29;20062;-79
2022/05/18 01:12:09;;;;;;;8.68;6.10;;;15.00;99.90;;;;;;4940417;29;20035;-78
2022/05/18 01:14:44;;;;;;;9.82;6.65;;;14.90;99.90;;;;;;4956329;28;20098;-80
2022/05/18 01:17:12;;;;;;;8.10;7.07;;;14.90;99.90;;;;;;4939422;29;20047;-79
2022/05/18 01:19:52;;;;;;;7.85;6.45;;;14.90;99.90;;;;;;4955455;28;20050;-79
2022/05/18 01:22:23;;;;;;;8.98;6.57;;;14.80;99.90;;;;;;4923520;29;20083;-79
2022/05/18 01:24:55;;;;;;;9.55;6.45;;;14.80;99.90;;;;;;4939091;28;21979;-79
2022/05/18 01:27:21;;;;;;;6.53;5.82;;;14.70;99.90;;;;;;4939696;29;20066;-80
2022/05/18 01:29:46;;;;;;;10.75;6.90;;;14.70;99.90;;;;;;4923429;29;20039;-79
2022/05/18 01:32:15;;;;;;;8.95;6.10;;;14.70;99.90;;;;;;4923714;29;20467;-79
2022/05/18 01:34:42;;;;;;;7.15;6.28;;;14.60;99.90;;;;;;4938394;28;20130;-79
2022/05/18 01:37:13;;;;;;;7.80;6.72;;;14.60;99.90;;;;;;4922784;28;20055;-79
2022/05/18 01:39:59;;;;;;;8.88;6.65;;;14.50;99.90;;;;;;4938830;28;20067;-79
2022/05/18 01:42:46;;;;;;;7.55;6.00;;;14.50;99.90;;;;;;4941853;29;20057;-79
2022/05/18 01:45:13;;;;;;;8.02;6.70;;;14.50;99.90;;;;;;4942835;29;20047;-79
2022/05/18 01:47:40;;;;;;;9.05;6.35;;;14.40;99.90;;;;;;4941324;28;20074;-79
2022/05/18 01:50:12;;;;;;;8.45;6.40;;;14.40;99.90;;;;;;4926554;29;20039;-78
2022/05/18 01:52:40;;;;;;;8.52;6.93;;;14.30;99.90;;;;;;4926409;29;20108;-79
2022/05/18 01:55:09;;;;;;;7.50;6.20;;;14.30;99.90;;;;;;4941648;29;20098;-78
2022/05/18 01:57:36;;;;;;;8.48;7.20;;;14.30;99.90;;;;;;4941755;29;20039;-79
2022/05/18 02:00:05;;;;;;;8.15;5.90;;;14.20;99.90;;;;;;4957859;28;20470;-79
2022/05/18 02:02:31;;;;;;;9.77;7.03;;;14.10;99.90;;;;;;4957978;28;20046;-79
2022/05/18 02:04:59;;;;;;;9.45;6.68;;;14.00;99.90;;;;;;4941747;29;20043;-79
2022/05/18 02:07:25;;;;;;;9.32;7.20;;;14.00;99.90;;;;;;4925739;29;20135;-79
2022/05/18 02:09:51;;;;;;;8.65;6.70;;;13.90;99.90;;;;;;4957083;28;20071;-79
2022/05/18 02:12:19;;;;;;;8.98;7.35;;;13.80;99.90;;;;;;4941284;29;20047;-79
2022/05/18 02:14:45;;;;;;;8.35;6.75;;;13.80;99.90;;;;;;4941134;28;20094;-79
2022/05/18 02:17:11;;;;;;;8.20;7.40;;;13.70;99.90;;;;;;4925228;29;20467;-79
2022/05/18 02:19:36;;;;;;;8.32;6.70;;;13.70;99.90;;;;;;4925671;29;20483;-79
2022/05/18 02:22:02;;;;;;;9.32;7.15;;;13.70;99.90;;;;;;4925574;29;20062;-79
2022/05/18 02:24:29;;;;;;;8.50;6.82;;;13.60;99.90;;;;;;4925339;29;20043;-79
2022/05/18 02:26:57;;;;;;;8.48;7.57;;;13.50;99.90;;;;;;4925393;29;20046;-79
2022/05/18 02:29:23;;;;;;;9.13;7.45;;;13.50;99.90;;;;;;4940929;28;20109;-79
2022/05/18 02:31:49;;;;;;;10.35;8.02;;;13.30;99.90;;;;;;4957349;28;20557;-79
2022/05/18 02:34:15;;;;;;;8.68;7.38;;;13.40;99.90;;;;;;4925308;29;20057;-79
2022/05/18 02:36:42;;;;;;;9.85;7.80;;;13.30;99.90;;;;;;4940911;29;20047;-79
2022/05/18 02:39:08;;;;;;;10.85;8.13;;;13.30;99.90;;;;;;4924700;29;20049;-79
2022/05/18 02:41:34;;;;;;;8.77;7.13;;;13.20;99.90;;;;;;4924829;29;20478;-79
2022/05/18 02:44:00;;;;;;;12.57;8.70;;;13.20;99.90;;;;;;4941238;28;20051;-79
2022/05/18 02:46:27;;;;;;;10.15;8.35;;;13.10;99.90;;;;;;4925501;29;20031;-79
2022/05/18 02:48:55;;;;;;;10.10;7.82;;;13.10;99.90;;;;;;4940794;29;20062;-79
2022/05/18 02:51:22;;;;;;;9.55;7.57;;;13.10;99.90;;;;;;4924577;29;20134;-78
2022/05/18 02:53:48;;;;;;;10.25;8.30;;;13.00;99.90;;;;;;4924623;29;20046;-79
2022/05/18 02:56:25;;;;;;;11.18;8.07;;;13.00;99.90;;;;;;4940758;29;20049;-79
2022/05/18 02:58:53;;;;;;;12.13;8.88;;;13.10;99.90;;;;;;4924938;29;20054;-79
2022/05/18 03:01:24;;;;;;;10.75;8.30;;;12.90;99.90;;;;;;4925082;29;20039;-79
2022/05/18 03:03:51;;;;;;;11.85;8.77;;;12.90;99.90;;;;;;4925037;29;20066;-79
2022/05/18 03:06:19;;;;;;;10.25;8.43;;;12.80;99.90;;;;;;4924663;29;20046;-79
2022/05/18 03:08:45;;;;;;;10.68;8.63;;;13.00;99.90;;;;;;4924604;29;20455;-78
2022/05/18 03:11:12;;;;;;;11.55;9.32;;;12.80;99.90;;;;;;4941103;28;20051;-79
2022/05/18 03:13:37;;;;;;;10.10;8.48;;;12.80;99.90;;;;;;4941764;29;20137;-80
2022/05/18 03:16:04;;;;;;;12.18;9.52;;;12.80;99.90;;;;;;4925889;29;20047;-79
2022/05/18 03:18:31;;;;;;;11.18;8.57;;;12.70;99.90;;;;;;4940926;29;20047;-78
2022/05/18 03:23:42;;;;;;;10.80;9.70;;;12.70;99.90;;;;;;4957255;28;20055;-79
2022/05/18 03:26:11;;;;;;;11.32;9.25;;;12.60;99.90;;;;;;4925610;29;20047;-79
2022/05/18 03:28:39;;;;;;;13.75;9.65;;;12.60;99.90;;;;;;4941260;29;20402;-79
2022/05/18 03:31:05;;;;;;;11.82;9.95;;;12.60;99.90;;;;;;4940679;29;20059;-79
2022/05/18 03:33:32;;;;;;;10.82;8.85;;;12.50;99.90;;;;;;4935585;29;20039;-79
2022/05/18 03:35:58;;;;;;;11.50;9.90;;;12.60;99.90;;;;;;4935011;29;20047;-78
2022/05/18 03:38:24;;;;;;;11.57;9.68;;;12.60;99.90;;;;;;4943773;28;20047;-79
2022/05/18 03:40:53;;;;;;;11.30;9.23;;;12.50;99.90;;;;;;4927410;29;20067;-78
2022/05/18 03:43:19;;;;;;;10.32;9.02;;;12.50;99.90;;;;;;4943440;29;20414;-78
2022/05/18 03:45:48;;;;;;;11.77;9.27;;;12.50;99.90;;;;;;4958825;28;20041;-79
2022/05/18 03:48:16;;;;;;;13.27;10.40;;;12.50;99.90;;;;;;4927168;29;20047;-78
2022/05/18 03:50:44;;;;;;;12.07;10.30;;;12.50;99.90;;;;;;4926763;28;20089;-79
2022/05/18 03:53:11;;;;;;;11.45;10.23;;;12.50;99.90;;;;;;4942253;29;20098;-79
2022/05/18 03:55:39;;;;;;;14.20;10.75;;;12.40;99.90;;;;;;4942015;29;20043;-78
2022/05/18 03:58:04;;;;;;;11.63;10.43;;;12.50;99.90;;;;;;4925786;29;20055;-79
2022/05/18 04:00:30;;;;;;;15.70;11.48;;;12.50;99.90;;;;;;4925769;29;20043;-79
2022/05/18 04:02:57;;;;;;;13.57;12.02;;;12.50;99.90;;;;;;4956845;28;20506;-79
2022/05/18 04:05:23;;;;;;;13.80;11.00;;;12.60;99.90;;;;;;4925117;28;20093;-79
2022/05/18 04:07:51;;;;;;;13.18;11.55;;;12.50;99.90;;;;;;4925857;29;20142;-79
2022/05/18 04:10:17;;;;;;;13.07;11.40;;;12.60;99.90;;;;;;4925814;29;20039;-79
2022/05/18 04:12:44;;;;;;;14.20;11.80;;;12.70;99.90;;;;;;4925441;29;20099;-79
2022/05/18 04:15:16;;;;;;;13.48;11.75;;;12.80;99.90;;;;;;4941770;29;20080;-79
2022/05/18 04:17:44;;;;;;;13.43;12.02;;;12.90;99.90;;;;;;4925479;28;20075;-78
2022/05/18 04:20:11;;;;;;;16.27;13.07;;;12.90;99.90;;;;;;4926063;29;20510;-78
2022/05/18 04:22:40;;;;;;;15.10;13.13;;;13.00;99.90;;;;;;4926948;29;20047;-78
2022/05/18 04:25:06;;;;;;;17.35;13.05;;;13.10;99.90;;;;;;4941821;29;20111;-78
2022/05/18 04:27:35;;;;;;;15.48;12.73;;;13.20;99.90;;;;;;4926468;29;20035;-79
2022/05/18 04:30:04;;;;;;;16.67;13.57;;;13.30;99.90;;;;;;4926234;29;20043;-78
2022/05/18 04:32:29;;;;;;;16.13;13.57;;;13.50;99.90;;;;;;4926145;28;20045;-79
2022/05/18 04:34:55;;;;;;;15.75;13.02;;;13.50;99.90;;;;;;4926221;29;20047;-79
2022/05/18 04:37:24;;;;;;;16.25;13.10;;;13.70;99.90;;;;;;4926376;29;20098;-79
2022/05/18 04:39:50;;;;;;;12.70;11.45;;;13.90;99.90;;;;;;4926608;29;20043;-78
2022/05/18 04:42:16;;;;;;;12.77;10.57;;;14.30;99.90;;;;;;4926528;29;20035;-80
2022/05/18 04:44:42;;;;;;;11.55;10.15;;;14.60;99.90;;;;;;4946790;28;20092;-79
2022/05/18 04:47:08;;;;;;;11.05;9.73;;;14.90;99.90;;;;;;4935322;29;20059;-79
2022/05/18 04:49:37;;;;;;;10.82;9.73;;;15.30;99.90;;;;;;4935678;29;20222;-79
2022/05/18 04:52:03;;;;;;;10.25;9.13;;;15.60;99.90;;;;;;4927913;29;20047;-79
2022/05/18 04:54:29;;;;;;;11.27;8.93;;;15.80;99.90;;;;;;4923244;29;20064;-79
2022/05/18 04:56:58;;;;;;;10.23;8.40;;;16.00;99.90;;;;;;4923187;29;20419;-79
2022/05/18 04:59:27;;;;;;;10.63;9.43;;;16.20;99.90;;;;;;4922212;28;20043;-79
2022/05/18 05:01:52;;;;;;;10.88;9.20;;;16.50;99.90;;;;;;4939240;29;20078;-79
2022/05/18 05:04:22;;;;;;;10.13;9.05;;;16.90;99.90;;;;;;4938400;29;20150;-79
2022/05/18 05:06:51;;;;;;;9.48;8.48;;;17.20;99.90;;;;;;4923378;29;20398;-79
2022/05/18 05:09:22;;;;;;;9.57;8.55;;;17.50;99.90;;;;;;4922372;29;20042;-79
2022/05/18 05:11:54;;;;;;;8.82;7.93;;;17.80;99.90;;;;;;4922627;28;20422;-80
2022/05/18 05:14:22;;;;;;;9.45;8.40;;;18.10;99.90;;;;;;4921754;29;20054;-79
2022/05/18 05:16:48;;;;;;;10.73;7.97;;;18.30;99.90;;;;;;4922635;29;20050;-80
2022/05/18 05:19:15;;;;;;;8.38;7.47;;;18.50;99.90;;;;;;4921534;29;20066;-79
2022/05/18 05:21:42;;;;;;;8.43;7.57;;;18.70;99.90;;;;;;4922326;29;20137;-79
2022/05/18 05:24:15;;;;;;;7.90;7.10;;;18.90;99.90;;;;;;4921454;29;20074;-80
2022/05/18 05:26:44;;;;;;;8.50;7.70;;;19.10;99.90;;;;;;4922476;28;20094;-80
2022/05/18 05:29:11;;;;;;;9.10;7.32;;;19.30;99.90;;;;;;4921623;29;20082;-80
2022/05/18 05:31:40;;;;;;;8.75;7.85;;;19.50;99.90;;;;;;4921160;29;20039;-77
2022/05/18 05:34:06;;;;;;;8.45;7.28;;;19.70;99.90;;;;;;4921690;29;20043;-80
2022/05/18 05:36:33;;;;;;;8.25;7.43;;;19.90;99.90;;;;;;4937798;29;20043;-79
2022/05/18 05:38:58;;;;;;;7.20;6.50;;;20.00;99.90;;;;;;4921813;28;20043;-80
2022/05/18 05:41:26;;;;;;;8.00;7.20;;;20.10;99.90;;;;;;4921618;29;20113;-79
2022/05/18 05:43:53;;;;;;;7.80;7.00;;;20.10;99.90;;;;;;4921501;29;20065;-80
2022/05/18 05:46:19;;;;;;;8.18;7.28;;;20.10;99.90;;;;;;4921123;29;20043;-80
2022/05/18 05:48:48;;;;;;;8.65;7.80;;;19.80;99.90;;;;;;4921344;29;20043;-80
2022/05/18 05:51:18;;;;;;;8.48;7.68;;;19.60;99.90;;;;;;4921875;29;20133;-80
2022/05/18 05:53:45;;;;;;;9.05;8.10;;;19.30;99.90;;;;;;4921231;28;20078;-79
2022/05/18 05:56:14;;;;;;;8.45;7.55;;;19.10;99.90;;;;;;4937427;29;20081;-80
2022/05/18 05:58:41;;;;;;;9.32;8.23;;;19.00;99.90;;;;;;4920567;29;20048;-79
2022/05/18 06:01:11;;;;;;;9.10;8.20;;;18.90;99.90;;;;;;4935857;29;20047;-79
2022/05/18 06:03:38;;;;;;;10.73;8.68;;;18.80;99.90;;;;;;4951759;28;20043;-79
2022/05/18 06:06:04;;;;;;;9.73;8.73;;;18.70;99.90;;;;;;4919717;28;20043;-79
2022/05/18 06:08:31;;;;;;;9.95;8.95;;;18.70;99.90;;;;;;4919758;29;20043;-79
2022/05/18 06:10:58;;;;;;;9.35;8.45;;;18.60;99.90;;;;;;4920135;29;20094;-79
2022/05/18 06:13:25;;;;;;;10.65;8.88;;;18.60;99.90;;;;;;4919743;29;20126;-79
2022/05/18 06:15:51;;;;;;;11.77;9.52;;;18.60;99.90;;;;;;4919894;29;20051;-79
2022/05/18 06:18:16;;;;;;;10.18;9.10;;;18.60;99.90;;;;;;4919620;29;20046;-80
2022/05/18 06:20:44;;;;;;;11.50;9.43;;;18.60;99.90;;;;;;4935497;28;20046;-78
2022/05/18 06:23:10;;;;;;;10.65;9.52;;;18.70;99.90;;;;;;4920121;29;20402;-79
2022/05/18 06:25:37;;;;;;;10.48;8.93;;;18.80;99.90;;;;;;4935838;29;20035;-78
2022/05/18 06:28:04;;;;;;;12.85;9.15;;;18.70;99.90;;;;;;4938924;29;20118;-78
2022/05/18 06:30:30;;;;;;;9.75;8.80;;;18.80;99.90;;;;;;4939022;29;20039;-78
2022/05/18 06:32:56;;;;;;;12.40;9.30;;;18.90;99.90;;;;;;4923132;28;20130;-79
2022/05/18 06:35:25;;;;;;;12.10;8.68;;;19.00;99.90;;;;;;4923032;28;20126;-79
2022/05/18 06:37:51;;;;;;;12.48;8.40;;;19.00;99.90;;;;;;4938658;29;20043;-78
2022/05/18 06:40:18;;;;;;;9.80;8.82;;;19.20;99.90;;;;;;4922882;29;20078;-79
2022/05/18 06:42:44;;;;;;;10.82;8.60;;;19.10;99.90;;;;;;4939083;29;20122;-78
2022/05/18 06:45:12;;;;;;;11.45;9.88;;;19.30;99.90;;;;;;4922964;29;20043;-79
2022/05/18 06:47:38;;;;;;;10.13;8.27;;;19.30;99.90;;;;;;4938577;28;20090;-79
2022/05/18 06:50:08;;;;;;;10.23;8.95;;;19.40;99.90;;;;;;4938729;29;20074;-79
2022/05/18 06:52:34;;;;;;;10.10;9.02;;;19.50;99.90;;;;;;4922933;29;20047;-79
2022/05/18 06:55:00;;;;;;;10.32;8.88;;;19.50;99.90;;;;;;4922891;29;20059;-79
2022/05/18 06:57:26;;;;;;;9.98;8.98;;;19.60;99.90;;;;;;4922973;29;20047;-78
2022/05/18 06:59:52;;;;;;;10.13;8.85;;;19.70;99.90;;;;;;4922371;29;20136;-80
2022/05/18 07:02:18;;;;;;;10.48;9.38;;;19.80;99.90;;;;;;4938155;28;20050;-80
2022/05/18 07:04:44;;;;;;;9.65;8.73;;;19.90;99.90;;;;;;4938544;28;20043;-80
2022/05/18 07:07:10;;;;;;;10.43;9.27;;;20.00;99.90;;;;;;4938430;29;20407;-78
2022/05/18 07:09:36;;;;;;;9.38;8.40;;;20.10;99.90;;;;;;4922210;29;20047;-79
2022/05/18 07:12:02;;;;;;;10.57;8.60;;;20.20;99.90;;;;;;4938233;29;20043;-79
2022/05/18 07:14:29;;;;;;;10.85;8.70;;;20.30;99.90;;;;;;4922270;29;20043;-79
2022/05/18 07:16:56;;;;;;;8.85;7.85;;;20.40;99.90;;;;;;4922033;28;20050;-79
2022/05/18 07:19:25;;;;;;;10.02;7.80;;;20.50;99.90;;;;;;4937857;29;20089;-78
2022/05/18 07:21:53;;;;;;;10.52;8.10;;;20.70;99.90;;;;;;4922271;29;20054;-81
2022/05/18 07:24:19;;;;;;;11.20;8.00;;;20.80;99.90;;;;;;4922252;29;20039;-80
2022/05/18 07:26:45;;;;;;;8.93;7.95;;;21.00;99.90;;;;;;4922236;29;20061;-79
2022/05/18 07:29:12;;;;;;;8.27;7.47;;;21.20;99.90;;;;;;4921940;28;20047;-79
2022/05/18 07:34:22;;;;;;;8.15;7.35;;;21.50;99.90;;;;;;4954224;28;20383;-79
2022/05/18 07:36:53;;;;;;;9.77;7.75;;;21.70;99.90;;;;;;4921882;28;20206;-79
2022/05/18 07:39:23;;;;;;;10.27;7.78;;;21.90;99.90;;;;;;4920806;29;20051;-79
2022/05/18 07:41:49;;;;;;;8.13;7.38;;;22.20;99.90;;;;;;4922031;29;20486;-78
2022/05/18 07:44:17;;;;;;;9.25;7.22;;;22.50;99.90;;;;;;4921754;28;20059;-79
2022/05/18 07:46:42;;;;;;;8.88;7.55;;;22.80;99.90;;;;;;4953738;28;20098;-79
2022/05/18 07:49:11;;;;;;;7.28;6.57;;;23.00;99.90;;;;;;4921817;29;20494;-79
2022/05/18 07:51:36;;;;;;;9.15;7.38;;;23.20;99.90;;;;;;4937494;29;20049;-79
2022/05/18 07:54:02;;;;;;;7.47;6.60;;;23.40;99.90;;;;;;4921734;29;20043;-79
2022/05/18 07:56:28;;;;;;;7.78;6.65;;;23.60;99.90;;;;;;4921515;28;20466;-80
2022/05/18 07:58:57;;;;;;;6.65;5.90;;;23.90;99.90;;;;;;4937527;29;20039;-80
2022/05/18 08:01:25;;;;;;;7.15;6.28;;;24.30;99.90;;;;;;4921910;29;20167;-79
2022/05/18 08:03:53;;;;;;;6.38;5.75;;;24.60;99.90;;;;;;4921750;29;20085;-79
2022/05/18 08:06:19;;;;;;;6.40;5.57;;;24.90;99.90;;;;;;4937553;29;20122;-79
2022/05/18 08:08:56;;;;;;;6.72;5.65;;;25.60;99.90;;;;;;4921335;29;20134;-77
2022/05/18 08:16:50;;;;;;;10.93;7.20;;;28.00;99.90;;;;;;4952944;28;20522;-77
2022/05/18 08:19:17;;;;;;;5.68;5.10;;;28.70;99.90;;;;;;4920974;29;20141;-77
2022/05/18 08:21:47;;;;;;;5.82;4.70;;;29.20;98.40;;;;;;4937245;28;20119;-77
2022/05/18 08:24:13;;;;;;;6.10;5.50;;;29.60;96.60;;;;;;4953104;28;20379;-77
2022/05/18 08:26:41;;;;;;;5.95;4.82;;;30.00;96.20;;;;;;4921173;29;20062;-77
2022/05/18 08:29:10;;;;;;;7.03;5.80;;;30.50;93.80;;;;;;4936640;29;20043;-77
2022/05/18 08:31:37;;;;;;;9.00;6.55;;;31.00;92.80;;;;;;4936854;29;20043;-77
2022/05/18 08:34:03;;;;;;;6.35;5.75;;;31.30;91.40;;;;;;4952552;28;20139;-77
2022/05/18 08:36:31;;;;;;;7.78;6.00;;;31.70;90.50;;;;;;4920997;29;20203;-78
2022/05/18 08:39:02;;;;;;;6.47;5.80;;;31.90;88.10;;;;;;4952587;28;20047;-77
2022/05/18 08:41:42;;;;;;;6.93;5.88;;;32.10;84.20;;;;;;4921234;29;20043;-79
2022/05/18 08:44:36;;;;;;;6.22;5.65;;;32.30;81.40;;;;;;4921897;29;20410;-77
2022/05/18 08:47:19;;;;;;;6.47;5.72;;;32.60;65.80;;;;;;4952716;28;20039;-77
2022/05/18 08:50:03;;;;;;;6.32;5.65;;;32.90;75.40;;;;;;4952377;28;20050;-78
2022/05/18 08:53:06;;;;;;;6.05;5.55;;;33.30;67.00;;;;;;4936922;29;20421;-80
2022/05/18 08:55:54;;;;;;;7.05;6.15;;;33.50;63.40;;;;;;4936436;29;20078;-78
2022/05/18 08:58:40;;;;;;;7.18;5.82;;;33.60;68.70;;;;;;4936136;29;20062;-78
2022/05/18 09:01:14;;;;;;;7.25;6.43;;;33.90;57.00;;;;;;4920537;28;20035;-78
2022/05/18 09:03:54;;;;;;;7.15;6.22;;;34.10;60.10;;;;;;4936074;29;20509;-78
2022/05/18 09:06:40;;;;;;;6.95;6.25;;;34.10;58.40;;;;;;4920575;29;20101;-77
2022/05/18 09:12:03;;;;;;;7.95;5.45;;;34.50;59.00;;;;;;4952491;28;20115;-78
2022/05/18 09:14:37;;;;;;;6.03;5.53;;;34.70;55.80;;;;;;4936189;29;20091;-78
2022/05/18 09:17:35;;;;;;;7.00;5.53;;;34.60;55.00;;;;;;4920659;29;20062;-78
2022/05/18 09:20:15;;;;;;;6.75;6.15;;;34.60;53.00;;;;;;4935908;28;20490;-77
2022/05/18 09:23:25;;;;;;;7.35;6.50;;;34.60;52.10;;;;;;4936629;29;20046;-77
2022/05/18 09:26:15;;;;;;;9.65;7.25;;;34.70;52.60;;;;;;4936070;29;20043;-78
2022/05/18 09:28:53;;;;;;;8.73;7.47;;;34.80;52.30;;;;;;4920279;29;20051;-78
2022/05/18 09:31:38;;;;;;;9.98;7.97;;;35.00;51.90;;;;;;4920169;29;20061;-77
2022/05/18 09:34:29;;;;;;;7.82;7.13;;;35.10;50.60;;;;;;4920218;29;20530;-78
2022/05/18 09:37:07;;;;;;;8.50;7.60;;;35.30;51.80;;;;;;4936156;29;20048;-78
2022/05/18 09:39:38;;;;;;;9.60;8.02;;;35.20;50.50;;;;;;4935722;29;20043;-78
2022/05/18 09:42:14;;;;;;;7.82;7.03;;;35.30;50.50;;;;;;4952094;28;20403;-79
2022/05/18 09:44:43;;;;;;;9.57;8.00;;;35.40;50.20;;;;;;4919926;28;20049;-77
2022/05/18 09:47:14;;;;;;;8.57;7.80;;;35.40;49.20;;;;;;4919799;28;20462;-78
2022/05/18 09:49:44;;;;;;;8.88;7.97;;;35.50;48.30;;;;;;4950924;28;20454;-79
2022/05/18 09:52:12;;;;;;;8.82;7.68;;;35.50;48.20;;;;;;4920340;29;20500;-78
2022/05/18 09:54:39;;;;;;;9.57;8.68;;;35.50;47.90;;;;;;4935560;28;20460;-78
2022/05/18 09:57:18;;;;;;;9.02;8.23;;;35.40;47.80;;;;;;4919962;29;20067;-79
2022/05/18 09:59:49;;;;;;;8.68;7.88;;;35.10;48.00;;;;;;4935861;29;20047;-77
2022/05/18 10:07:57;;;;;;;10.02;9.02;;;35.30;48.90;;;;;;4955114;28;20051;-77
2022/05/18 10:10:34;;;;;;;11.30;10.30;;;35.50;48.30;;;;;;4923957;29;20039;-78
2022/05/18 10:13:05;;;;;;;10.23;9.20;;;35.50;48.20;;;;;;4923560;29;20047;-78
2022/05/18 10:15:44;;;;;;;11.15;10.05;;;35.70;48.00;;;;;;4923592;29;20043;-79
2022/05/18 10:18:32;;;;;;;10.90;9.82;;;35.70;46.50;;;;;;4922948;28;20125;-78
2022/05/18 10:21:16;;;;;;;11.10;9.48;;;35.70;46.60;;;;;;4923472;29;20050;-78
2022/05/18 10:23:51;;;;;;;9.55;8.75;;;35.90;46.60;;;;;;4939378;29;20035;-78
2022/05/18 10:26:25;;;;;;;9.85;8.85;;;36.10;46.10;;;;;;4939034;29;20039;-78
2022/05/18 10:29:10;;;;;;;9.80;9.00;;;36.10;46.50;;;;;;4939071;29;20138;-78
2022/05/18 10:31:46;;;;;;;8.80;7.90;;;36.00;46.00;;;;;;4923122;29;20147;-78
2022/05/18 10:34:21;;;;;;;10.10;9.13;;;36.10;47.00;;;;;;4923074;29;20054;-79
2022/05/18 10:36:50;;;;;;;10.27;9.27;;;36.00;46.40;;;;;;4938759;29;20051;-78
2022/05/18 10:39:40;;;;;;;10.95;9.95;;;36.10;47.40;;;;;;4939002;29;20043;-78
2022/05/18 10:42:19;;;;;;;9.85;8.98;;;36.20;45.80;;;;;;4922997;29;20083;-81
2022/05/18 10:44:45;;;;;;;10.52;9.60;;;36.30;46.60;;;;;;4922952;28;20042;-78
2022/05/18 10:47:19;;;;;;;10.75;9.68;;;36.50;47.00;;;;;;4938681;28;20043;-80
2022/05/18 10:49:46;;;;;;;11.10;10.00;;;36.40;46.40;;;;;;4939021;29;20043;-78
2022/05/18 10:52:12;;;;;;;12.10;11.00;;;36.30;46.20;;;;;;4938719;29;20050;-78
2022/05/18 10:54:55;;;;;;;12.30;11.13;;;36.10;45.60;;;;;;4938428;28;20057;-80
2022/05/18 10:57:38;;;;;;;12.63;11.40;;;36.00;46.00;;;;;;4922830;29;20141;-78
2022/05/18 11:00:12;;;;;;;11.95;10.85;;;35.60;46.30;;;;;;4938413;28;20047;-77
2022/05/18 11:02:52;;;;;;;11.63;10.65;;;35.50;47.20;;;;;;4954722;28;20043;-78
2022/05/18 11:05:34;;;;;;;13.68;12.25;;;35.90;47.40;;;;;;4954623;28;20039;-78
2022/05/18 11:08:08;;;;;;;13.27;12.05;;;36.10;45.70;;;;;;4938253;29;20039;-78
2022/05/18 11:10:45;;;;;;;11.98;10.90;;;36.30;46.50;;;;;;4922550;29;20047;-78
2022/05/18 11:13:21;;;;;;;12.73;11.50;;;36.60;46.20;;;;;;4922509;29;20102;-79
2022/05/18 11:16:04;;;;;;;12.15;11.05;;;36.80;46.20;;;;;;4922587;29;20039;-78
2022/05/18 11:18:54;;;;;;;12.60;11.40;;;37.10;46.60;;;;;;4937959;28;20048;-79
2022/05/18 11:22:05;;;;;;;13.73;12.30;;;37.30;45.00;;;;;;4922220;29;20047;-78
2022/05/18 11:24:39;;;;;;;12.88;11.57;;;37.00;43.60;;;;;;4928786;28;20047;-79
2022/05/18 11:27:28;;;;;;;14.82;13.43;;;36.70;45.00;;;;;;4938079;28;20110;-78
2022/05/18 11:30:07;;;;;;;12.15;11.05;;;37.00;44.80;;;;;;4922120;29;20426;-78
2022/05/18 11:32:54;;;;;;;13.45;12.15;;;37.10;44.30;;;;;;4937730;29;20047;-78
2022/05/18 11:35:51;;;;;;;12.85;11.75;;;36.70;45.60;;;;;;4937391;28;20043;-78
2022/05/18 11:38:26;;;;;;;12.32;11.23;;;36.50;46.00;;;;;;4937521;29;20134;-78
2022/05/18 11:41:17;;;;;;;12.43;11.32;;;36.70;45.80;;;;;;4937454;29;20462;-78
2022/05/18 11:44:06;;;;;;;10.20;9.38;;;37.10;45.40;;;;;;4921724;28;20043;-78
2022/05/18 11:47:01;;;;;;;12.40;11.10;;;37.20;45.90;;;;;;4921824;29;20102;-78
2022/05/18 11:50:12;;;;;;;12.35;11.25;;;37.20;45.60;;;;;;4937378;29;20134;-78
2022/05/18 11:52:53;;;;;;;11.70;10.60;;;37.00;44.30;;;;;;4953402;28;20043;-78
2022/05/18 11:55:46;;;;;;;12.15;11.00;;;36.60;45.50;;;;;;4921933;29;20047;-78
2022/05/18 11:59:09;;;;;;;12.00;11.00;;;35.90;46.00;;;;;;4939039;28;20090;-79
2022/05/18 12:02:21;;;;;;;13.05;11.88;;;35.20;47.40;;;;;;4939651;29;20126;-77
2022/05/18 12:05:21;;;;;;;11.32;10.23;;;34.50;47.80;;;;;;4936890;28;20138;-77
2022/05/18 12:08:14;;;;;;;11.30;10.07;;;34.20;50.60;;;;;;4915672;29;20046;-77
2022/05/18 12:11:24;;;;;;;11.63;10.43;;;34.60;50.30;;;;;;4936796;28;20047;-77
2022/05/18 12:14:27;;;;;;;10.32;9.07;;;35.40;48.80;;;;;;4922370;29;20059;-77
2022/05/18 12:17:11;;;;;;;10.82;9.75;;;35.90;49.10;;;;;;4936895;28;20053;-77
2022/05/18 12:20:28;;;;;;;8.98;8.10;;;36.30;48.60;;;;;;4936803;29;20047;-77
2022/05/18 12:22:58;;;;;;;10.73;9.65;;;36.60;46.90;;;;;;4924388;29;20051;-77
2022/05/18 12:25:26;;;;;;;10.48;9.00;;;36.30;47.90;;;;;;4920646;28;20043;-77
2022/05/18 12:27:56;;;;;;;9.05;8.18;;;35.70;47.10;;;;;;4936911;29;20048;-77
2022/05/18 12:30:24;;;;;;;9.40;8.60;;;35.40;48.00;;;;;;4921028;29;20420;-77
2022/05/18 12:32:54;;;;;;;10.98;9.98;;;35.00;48.30;;;;;;4936722;29;20081;-78
2022/05/18 12:35:32;;;;;;;10.07;9.18;;;34.60;48.50;;;;;;4936867;29;20050;-77
2022/05/18 12:38:05;;;;;;;11.07;10.00;;;34.30;49.40;;;;;;4920851;28;20067;-77
2022/05/18 12:40:39;;;;;;;;;;;34.20;49.30;;;;;;4936834;29;20055;-77
2022/05/18 12:43:27;;;;;;;9.80;8.80;;;34.10;50.50;;;;;;4936626;29;20013;-78
2022/05/18 12:46:16;;;;;;;9.80;8.85;;;34.00;50.40;;;;;;4936585;29;20118;-77
2022/05/18 12:48:58;;;;;;;9.50;8.60;;;33.80;51.00;;;;;;4936211;29;20510;-78
2022/05/18 12:51:26;;;;;;;10.48;9.38;;;33.70;52.40;;;;;;4920139;29;20157;-78
2022/05/18 12:53:52;;;;;;;8.93;8.02;;;33.70;52.00;;;;;;4936483;29;20051;-78
2022/05/18 12:56:20;;;;;;;9.85;8.85;;;33.60;52.20;;;;;;4935186;29;20055;-78
2022/05/18 12:58:58;;;;;;;8.50;7.60;;;33.30;51.70;;;;;;4920121;28;20046;-78
2022/05/18 13:01:31;;;;;;;9.60;7.93;;;32.90;54.70;;;;;;4936425;29;20379;-78
2022/05/18 13:04:12;;;;;;;8.40;7.57;;;32.70;55.90;;;;;;4920525;29;20410;-78
2022/05/18 13:07:00;;;;;;;9.60;7.65;;;32.60;56.80;;;;;;4936319;29;20043;-78
2022/05/18 13:09:42;;;;;;;8.05;7.25;;;33.10;57.00;;;;;;4920042;29;20055;-78
2022/05/18 13:12:23;;;;;;;8.57;7.13;;;33.40;55.20;;;;;;4920364;29;20242;-78
2022/05/18 13:15:04;;;;;;;9.80;7.25;;;33.20;54.30;;;;;;4936450;28;20047;-78
2022/05/18 13:17:54;;;;;;;8.07;6.97;;;32.80;55.40;;;;;;4920334;28;20065;-78
2022/05/18 13:20:25;;;;;;;10.98;9.88;;;32.40;55.50;;;;;;4920110;29;20039;-78
2022/05/18 13:23:49;;;;;;;11.05;9.52;;;32.20;59.50;;;;;;4936144;29;20043;-79
2022/05/18 13:26:25;;;;;;;11.10;9.90;;;32.50;61.20;;;;;;4952179;28;20035;-78
2022/05/18 13:28:58;;;;;;;13.13;10.27;;;32.80;57.60;;;;;;4938575;29;20043;-80